Date,TemperatureHighF,TemperatureAvgF,TemperatureLowF,DewpointHighF,DewpointAvgF,DewpointLowF,HumidityHigh,HumidityAvg,HumidityLow,PressureMaxIn,PressureMinIn,WindSpeedMaxMPH,WindSpeedAvgMPH,GustSpeedMaxMPH,PrecipitationSumIn
2013-1-1,71,58,42,62,51,41,98,81,57,0.00,40.00,11,4,20,0.00
2013-1-2,67,59,53,63,50,37,98,73,34,0.00,40.00,10,5,18,0.17
2013-1-3,53,45,37,44,41,35,94,86,71,0.00,40.00,6,4,11,0.14
2013-1-4,56,41,30,45,35,28,96,82,50,0.00,40.00,5,3,10,0.02
2013-1-5,54,43,30,42,32,25,96,70,32,0.00,40.00,7,2,12,0.00
2013-1-6,57,50,45,44,40,36,86,70,52,0.00,40.00,5,4,10,0.00
2013-1-7,58,44,30,40,34,29,98,73,36,0.00,40.00,14,4,21,0.00
2013-1-8,66,53,44,50,41,34,72,65,54,0.00,40.00,8,5,14,0.00
2013-1-9,66,59,52,59,52,46,88,80,72,0.00,40.00,7,4,11,0.00
2013-1-10,65,63,59,64,62,59,99,95,86,0.00,40.00,10,6,16,0.04
2013-1-11,74,67,63,64,62,59,96,84,65,0.00,40.00,8,5,19,0.02
2013-1-12,80,65,55,61,58,55,99,81,47,0.00,40.00,8,3,16,0.00
2013-1-13,78,66,58,63,60,57,100,83,60,0.00,40.00,8,4,15,0.00
2013-1-14,78,69,65,64,62,56,98,80,56,0.00,40.00,9,6,17,0.00
2013-1-15,76,66,54,63,60,54,99,81,62,0.00,40.00,9,5,16,0.00
2013-1-16,79,69,63,67,63,60,98,84,56,0.00,40.00,10,6,18,0.31
2013-1-17,65,52,39,64,48,31,99,85,70,0.00,40.00,13,8,28,0.48
2013-1-18,58,45,34,38,33,25,96,69,28,0.00,40.00,8,5,15,0.01
2013-1-19,64,46,33,47,35,26,96,68,41,0.00,40.00,7,3,10,0.00
2013-1-20,67,50,38,47,38,27,98,72,22,0.00,40.00,7,2,13,0.00
2013-1-21,65,48,34,39,36,33,98,68,32,0.00,40.00,10,4,16,0.00
2013-1-22,54,43,32,34,24,16,93,50,24,0.00,40.00,9,5,16,0.00
2013-1-23,60,43,28,41,31,22,96,68,33,0.00,40.00,10,3,18,0.00
2013-1-24,69,56,47,48,42,28,84,62,38,0.00,40.00,12,6,19,0.00
2013-1-25,56,48,40,47,34,16,90,59,28,0.00,40.00,10,5,17,0.00
2013-1-26,66,54,38,52,43,26,97,71,25,0.00,40.00,8,4,13,0.00
2013-1-27,63,48,33,44,38,32,97,70,42,0.00,40.00,10,6,17,0.00
2013-1-28,70,56,49,57,48,37,97,74,58,0.00,40.00,7,4,11,0.00
2013-1-29,78,63,46,62,55,46,100,79,52,0.00,40.00,9,4,18,0.00
2013-1-30,74,67,52,66,61,46,90,81,74,0.00,40.00,17,11,36,0.48
2013-1-31,55,47,37,47,28,21,89,51,26,0.00,40.00,15,8,25,0.45
2013-2-1,54,42,30,31,24,4,84,53,13,0.00,40.00,13,5,22,0.00
2013-2-2,61,41,24,32,23,13,93,56,19,0.00,40.00,7,3,14,0.00
2013-2-3,63,51,35,40,33,27,95,55,25,0.00,40.00,16,7,26,0.00
2013-2-4,58,41,30,39,32,24,96,75,30,0.00,40.00,5,2,9,0.00
2013-2-5,71,54,38,53,46,36,96,77,49,0.00,40.00,9,4,15,0.00
2013-2-6,73,57,45,55,48,45,99,79,38,0.00,40.00,5,2,12,0.00
2013-2-7,55,52,46,54,50,45,98,96,91,0.00,40.00,9,5,17,2.25
2013-2-8,63,53,48,51,48,46,94,83,65,0.00,40.00,11,6,16,0.01
2013-2-9,63,49,34,47,38,33,95,69,38,0.00,40.00,7,5,12,0.00
2013-2-10,69,57,42,59,46,33,98,66,56,0.00,40.00,12,7,22,0.78
2013-2-11,65,61,57,64,59,53,99,95,79,0.00,40.00,10,6,22,3.22
2013-2-12,57,54,47,57,52,45,99,93,71,0.00,40.00,10,5,19,1.99
2013-2-13,63,55,47,57,50,42,100,87,52,0.00,40.00,12,6,32,1.10
2013-2-14,51,44,39,44,38,35,98,80,60,0.00,40.00,8,4,12,0.04
2013-2-15,66,46,32,47,37,32,99,77,31,0.00,40.00,7,2,14,0.00
2013-2-16,51,44,36,40,26,9,97,55,21,0.00,40.00,16,8,31,0.01
2013-2-17,50,38,28,27,14,3,85,44,14,0.00,40.00,9,6,20,0.01
2013-2-18,58,42,27,31,25,19,95,58,24,0.00,40.00,9,4,16,0.00
2013-2-19,65,51,40,54,40,26,97,67,45,0.00,40.00,11,5,20,0.13
2013-2-20,61,47,29,37,24,17,91,49,18,0.00,40.00,9,4,17,0.01
2013-2-21,67,48,29,37,30,25,96,58,22,0.00,40.00,8,3,15,0.00
2013-2-22,59,52,47,50,48,34,99,87,42,0.00,40.00,8,6,26,1.42
2013-2-23,50,47,44,50,47,43,99,98,96,0.00,40.00,8,5,21,2.52
2013-2-24,70,54,46,51,46,35,100,79,28,0.00,40.00,6,4,11,0.07
2013-2-25,55,52,49,53,49,43,99,92,69,0.00,40.00,20,7,31,1.23
2013-2-26,69,56,46,60,47,39,99,75,41,0.00,40.00,17,10,25,1.33
2013-2-27,60,51,42,41,37,34,76,60,41,0.00,40.00,10,7,16,0.01
2013-2-28,59,49,40,40,33,27,84,56,31,0.00,40.00,13,8,21,0.00
2013-3-1,52,43,35,31,28,26,81,56,38,0.00,40.00,10,6,17,0.00
2013-3-2,43,38,31,31,27,24,91,66,52,0.00,40.00,12,7,20,0.00
2013-3-3,45,38,34,28,22,18,75,54,33,0.00,40.00,11,8,20,0.00
2013-3-4,62,44,26,36,26,17,93,56,24,0.00,40.00,7,3,21,0.00
2013-3-5,73,57,47,57,46,33,90,67,49,0.00,40.00,16,8,33,0.14
2013-3-6,51,44,38,35,27,19,72,52,36,0.00,40.00,18,11,32,0.14
2013-3-7,64,45,29,37,30,27,94,62,25,0.00,40.00,7,3,14,0.00
2013-3-8,65,47,32,43,34,31,96,67,28,0.00,40.00,9,3,15,0.00
2013-3-9,66,50,34,44,36,29,98,65,26,0.00,40.00,12,3,17,0.00
2013-3-10,74,62,48,52,43,34,79,51,33,0.00,40.00,10,6,17,0.00
2013-3-11,71,62,56,60,54,51,98,77,55,0.00,40.00,13,7,23,0.58
2013-3-12,67,55,42,60,42,32,98,65,28,0.00,40.00,10,8,20,1.34
2013-3-13,64,53,38,36,28,17,93,44,17,0.00,40.00,16,8,25,0.00
2013-3-14,60,46,34,35,22,15,78,42,17,0.00,40.00,11,6,22,0.00
2013-3-15,75,54,34,40,34,28,94,54,23,0.00,40.00,9,4,17,0.00
2013-3-16,77,64,48,48,43,37,90,52,24,0.00,40.00,12,8,24,0.00
2013-3-17,71,63,53,59,54,48,97,76,52,0.00,40.00,8,5,16,0.00
2013-3-18,77,64,56,63,59,55,98,86,60,0.00,40.00,12,5,26,0.93
2013-3-19,75,62,56,57,44,27,98,61,17,0.00,40.00,11,5,20,1.03
2013-3-20,65,54,44,42,30,23,81,43,20,0.00,40.00,7,4,15,0.01
2013-3-21,58,47,35,34,26,13,88,48,17,0.00,40.00,13,6,20,0.00
2013-3-22,52,47,42,43,33,21,80,60,38,0.00,40.00,8,5,15,0.07
2013-3-23,60,54,49,53,47,42,94,79,70,0.00,40.00,13,6,25,0.17
2013-3-24,71,59,53,58,54,39,99,83,53,0.00,40.00,18,7,29,2.19
2013-3-25,56,48,42,39,26,18,59,43,22,0.00,40.00,16,12,29,0.18
2013-3-26,50,41,33,24,22,20,66,48,32,0.00,40.00,14,9,25,0.00
2013-3-27,60,42,30,27,23,20,88,53,21,0.00,40.00,8,5,18,0.00
2013-3-28,67,60,44,38,29,22,80,36,18,0.00,40.00,8,4,17,0.00
2013-3-29,72,54,35,42,36,29,97,60,23,0.00,40.00,6,3,14,0.00
2013-3-30,74,63,49,52,45,37,74,54,38,0.00,40.00,9,5,17,0.00
2013-3-31,79,68,59,62,52,-100,93,63,41,0.00,40.00,11,8,20,0.43
2013-4-1,78,67,60,61,56,47,97,72,35,0.00,40.00,9,6,19,0.52
2013-4-24,81,76,65,63,59,57,90,57,44,0.00,40.00,10,6,17,0.00
2013-4-25,80,68,58,62,52,32,98,64,18,0.00,40.00,9,4,17,0.00
2013-4-26,82,63,41,54,41,32,92,49,23,0.00,40.00,8,4,16,0.00
2013-4-27,83,69,53,54,51,48,93,56,31,0.00,40.00,9,6,19,0.00
2013-4-28,80,69,62,67,59,-100,94,75,52,0.00,40.00,9,6,21,0.12
2013-4-29,76,66,62,66,63,61,99,91,64,0.00,40.00,6,4,13,0.29
2013-4-30,83,75,62,65,60,54,99,61,37,0.00,40.00,7,4,12,0.01
2013-5-1,72,68,62,62,59,55,96,76,62,0.00,40.00,13,9,21,0.00
2013-5-2,74,67,62,63,61,56,94,81,66,0.00,40.00,14,10,24,0.07
2013-5-3,70,66,63,61,59,57,89,79,64,0.00,40.00,14,11,29,0.02
2013-5-4,64,60,56,63,58,54,97,93,86,0.00,40.00,14,8,21,1.26
2013-5-5,71,58,51,58,51,46,98,80,44,0.00,40.00,12,7,21,1.00
2013-5-6,66,55,44,53,46,43,97,74,48,0.00,40.00,9,5,17,0.15
2013-5-7,69,60,53,54,51,44,97,76,44,0.00,40.00,10,6,17,0.06
2013-5-8,80,64,48,60,51,47,98,71,36,0.00,40.00,9,4,16,0.02
2013-5-9,84,68,55,64,57,52,98,73,33,0.00,40.00,7,2,13,0.00
2013-5-10,82,69,59,63,57,-100,97,72,41,0.00,40.00,9,4,16,0.00
2013-5-11,80,68,62,68,62,57,94,81,53,0.00,40.00,9,4,16,0.06
2013-5-12,79,70,61,64,52,-100,95,61,32,0.00,40.00,11,6,20,0.06
2013-5-13,75,61,47,44,36,25,77,45,16,0.00,40.00,10,6,19,0.00
2013-5-14,81,62,45,57,45,35,96,62,27,0.00,40.00,6,3,13,0.00
2013-5-15,89,71,55,60,55,52,93,62,30,0.00,40.00,9,4,16,0.00
2013-5-16,85,63,62,63,31,-100,86,57,28,0.00,40.00,8,4,14,0.00
2013-5-17,86,72,62,65,51,-100,95,67,36,0.00,40.00,7,3,15,0.00
2013-5-18,79,70,66,69,65,61,96,84,66,0.00,40.00,8,4,13,0.22
2013-5-19,87,73,67,68,67,65,96,82,52,0.00,40.00,7,4,29,0.34
2013-5-20,86,74,67,71,68,66,99,84,51,0.00,40.00,7,3,10,0.07
2013-5-21,92,79,66,73,67,63,98,72,39,0.00,40.00,9,4,16,0.05
2013-5-22,89,76,65,70,67,64,97,75,48,0.00,40.00,9,4,26,0.87
2013-5-23,88,76,66,69,63,54,98,69,33,0.00,40.00,10,5,26,0.94
2013-5-24,83,74,64,64,54,44,80,53,25,0.00,40.00,13,7,20,0.01
2013-5-25,84,69,54,57,49,42,86,53,26,0.00,40.00,10,4,15,0.00
2013-5-26,89,73,56,65,57,52,97,64,29,0.00,40.00,7,3,14,0.00
2013-5-27,88,75,62,66,60,56,95,64,35,0.00,40.00,7,4,13,0.00
2013-5-28,88,77,63,63,59,54,96,58,32,0.00,40.00,9,6,19,0.00
2013-5-29,88,78,66,66,62,57,90,62,35,0.00,40.00,11,7,17,0.00
2013-5-30,90,80,72,69,65,59,90,64,36,0.00,40.00,10,7,22,0.00
2013-5-31,90,80,69,68,64,60,95,63,39,0.00,40.00,11,6,19,0.00
2013-6-1,90,79,69,69,65,63,93,65,41,0.00,40.00,10,6,15,0.00
2013-6-2,90,79,70,70,67,-100,96,72,49,0.00,40.00,11,6,24,0.42
2013-6-3,87,77,70,73,70,67,97,81,54,0.00,40.00,6,4,15,0.81
2013-6-4,92,80,72,73,71,68,97,76,50,0.00,40.00,13,4,22,0.00
2013-6-5,89,78,71,72,69,67,93,76,50,0.00,40.00,11,5,18,0.00
2013-6-6,77,72,70,72,70,68,96,92,85,0.00,40.00,8,5,16,0.60
2013-6-7,89,75,68,72,69,67,97,83,54,0.00,40.00,9,6,19,0.48
2013-6-8,90,76,67,71,68,66,99,79,48,0.00,40.00,7,3,16,0.25
2013-6-9,85,76,72,73,71,69,96,84,63,0.00,40.00,8,4,23,0.79
2013-6-10,84,76,71,74,71,69,96,87,67,0.00,40.00,9,5,30,0.47
2013-6-11,91,80,71,75,71,68,98,78,47,0.00,40.00,9,5,14,0.02
2013-6-12,94,84,73,76,72,69,93,71,44,0.00,40.00,8,4,14,0.00
2013-6-13,94,84,75,76,71,67,93,67,42,0.00,40.00,13,6,24,0.00
2013-6-14,90,80,71,75,67,62,95,68,40,0.00,40.00,8,5,22,0.07
2013-6-15,90,80,68,67,61,55,92,58,32,0.00,40.00,10,5,17,0.00
2013-6-16,93,81,71,68,66,62,87,63,36,0.00,40.00,6,4,14,0.00
2013-6-17,92,81,73,74,70,65,94,71,47,0.00,40.00,8,5,26,0.52
2013-6-18,85,77,72,75,72,70,98,86,64,0.00,40.00,13,5,26,0.94
2013-6-19,85,77,70,73,71,69,97,82,58,0.00,40.00,9,4,14,0.31
2013-6-20,86,76,71,73,70,68,97,84,56,0.00,40.00,9,5,16,0.00
2013-6-22,89,82,72,71,67,64,93,62,45,0.00,40.00,7,5,18,0.09
2013-6-23,90,76,71,73,71,69,95,85,53,0.00,40.00,6,4,19,0.16
2013-6-24,91,77,70,74,71,67,98,82,51,0.00,40.00,9,3,29,0.01
2013-6-25,90,78,69,74,70,68,98,79,51,0.00,40.00,12,4,18,0.01
2013-6-26,93,81,71,74,71,66,94,72,42,0.00,40.00,8,4,14,0.00
2013-6-27,92,81,74,75,72,66,94,75,51,0.00,40.00,11,6,20,0.00
2013-6-28,95,79,72,75,72,66,96,81,49,0.00,40.00,15,6,34,0.21
2013-6-29,87,78,71,74,70,68,94,80,60,0.00,40.00,9,6,16,0.09
2013-6-30,83,75,69,75,72,68,97,89,71,0.00,40.00,9,4,15,0.98
2013-7-1,86,74,67,74,70,66,98,86,60,0.00,40.00,7,4,18,0.99
2013-7-2,86,76,70,73,71,68,96,85,59,0.00,40.00,7,5,17,0.56
2013-7-3,84,77,71,74,72,70,96,87,72,0.00,40.00,7,4,22,0.31
2013-7-4,82,76,71,74,71,68,97,86,73,0.00,40.00,10,7,17,0.37
2013-7-5,87,75,71,75,71,69,96,87,68,0.00,40.00,9,5,24,0.60
2013-7-6,87,76,72,75,72,70,97,90,59,0.00,40.00,11,6,21,0.54
2013-7-7,91,78,71,74,72,67,99,84,49,0.00,40.00,8,3,22,0.66
2013-7-8,92,78,71,74,71,69,99,83,48,0.00,40.00,8,3,13,0.66
2013-7-9,92,81,71,76,72,70,97,77,52,0.00,40.00,6,3,11,0.00
2013-7-10,87,76,74,76,69,-100,97,86,66,0.00,40.00,7,4,12,0.14
2013-7-11,89,77,71,73,72,70,98,86,57,0.00,40.00,8,5,20,0.34
2013-7-12,87,78,74,76,73,68,97,85,58,0.00,40.00,7,4,15,0.76
2013-7-13,81,76,71,73,71,69,97,86,72,0.00,40.00,13,5,18,0.02
2013-7-14,87,79,73,74,71,70,95,80,57,0.00,40.00,12,8,17,0.05
2013-7-15,87,77,73,74,72,71,94,86,59,0.00,40.00,9,7,35,0.24
2013-7-16,90,85,74,76,72,69,94,65,52,0.00,40.00,8,5,15,0.24
2013-7-17,94,81,71,75,72,69,98,76,45,0.00,40.00,10,3,17,0.13
2013-7-18,90,80,70,76,72,68,97,78,54,0.00,40.00,14,4,27,0.54
2013-7-19,92,80,72,76,72,69,97,77,47,0.00,40.00,9,3,13,0.00
2013-7-20,88,78,73,74,70,-100,95,79,57,0.00,40.00,8,5,18,0.00
2013-7-21,84,77,74,75,73,70,96,87,74,0.00,40.00,10,5,22,0.10
2013-7-22,86,77,71,75,72,70,97,87,63,0.00,40.00,9,5,18,0.30
2013-7-23,90,77,72,75,72,70,96,86,58,0.00,40.00,9,5,33,0.55
2013-7-24,90,76,69,75,70,68,96,83,55,0.00,40.00,9,6,15,0.40
2013-7-25,92,80,71,73,71,69,98,77,48,0.00,40.00,8,4,18,0.03
2013-7-26,90,79,71,75,72,70,97,81,52,0.00,40.00,8,3,15,0.03
2013-7-27,90,80,72,74,72,68,99,79,48,0.00,40.00,8,3,13,0.00
2013-7-28,90,80,71,74,71,68,100,79,50,0.00,40.00,10,3,17,0.00
2013-7-29,91,80,72,79,74,72,100,84,56,0.00,40.00,7,2,12,0.06
2013-7-30,92,82,71,77,71,66,98,73,48,0.00,40.00,6,3,10,0.06
2013-7-31,79,75,71,75,72,70,100,93,80,0.00,40.00,11,4,20,1.33
2013-8-1,89,78,72,76,74,72,100,90,59,0.00,40.00,6,3,16,0.93
2013-8-2,92,79,73,76,74,73,100,87,54,0.00,40.00,9,3,13,0.91
2013-8-3,92,81,72,78,74,68,100,81,45,0.00,40.00,8,3,14,0.00
2013-8-4,91,80,74,78,74,72,98,84,61,0.00,40.00,6,3,12,0.65
2013-8-5,92,81,71,77,72,66,100,78,45,0.00,40.00,7,3,11,0.11
2013-8-6,91,81,74,78,74,72,100,83,55,0.00,40.00,6,3,10,0.00
2013-8-7,89,81,75,76,74,72,99,82,58,0.00,40.00,9,4,20,0.32
2013-8-8,91,81,73,78,74,72,98,81,54,0.00,40.00,7,4,13,0.32
2013-8-9,93,82,73,77,74,72,100,79,50,0.00,40.00,8,4,11,0.00
2013-8-10,93,84,73,76,72,68,97,71,45,0.00,40.00,8,4,12,0.00
2013-8-11,94,83,72,77,73,70,99,75,46,0.00,40.00,8,3,13,0.00
2013-8-12,95,83,74,77,74,70,97,76,45,0.00,40.00,7,3,12,0.01
2013-8-13,90,79,72,77,71,-100,96,78,56,0.00,40.00,9,5,24,0.05
2013-8-14,89,78,74,74,72,71,97,85,60,0.00,40.00,8,4,16,0.05
2013-8-15,76,67,68,74,59,-100,98,90,89,0.00,40.00,8,6,16,1.26
2013-8-16,73,67,67,69,63,-100,100,95,85,0.00,40.00,7,5,13,0.50
2013-8-17,73,69,66,73,69,66,100,100,99,0.00,40.00,7,4,12,1.94
2013-8-18,86,74,70,76,70,-100,100,91,70,0.00,40.00,10,4,18,0.61
2013-8-19,90,73,72,77,64,-100,100,87,56,0.00,40.00,8,4,17,0.63
2013-8-20,88,76,71,76,71,-100,100,89,60,0.00,40.00,7,4,17,0.79
2013-8-21,90,77,70,75,72,70,100,87,56,0.00,40.00,12,3,27,0.79
2013-8-22,90,78,71,76,73,70,100,88,55,0.00,40.00,13,3,19,0.48
2013-8-23,90,79,70,76,71,67,100,81,49,0.00,40.00,5,3,16,0.06
2013-8-24,88,78,72,74,72,70,99,84,59,0.00,40.00,12,6,19,0.02
2013-8-25,85,76,70,70,63,-100,93,69,43,0.00,40.00,10,6,20,0.00
2013-8-26,84,73,62,66,61,58,95,68,42,0.00,40.00,9,4,16,0.00
2013-8-27,88,76,69,66,64,61,86,68,42,0.00,40.00,7,3,11,0.00
2013-8-28,90,84,73,73,69,66,95,64,45,0.00,40.00,6,4,11,0.00
2013-8-29,92,81,70,74,70,68,97,73,46,0.00,40.00,8,4,15,0.00
2013-8-30,95,80,74,76,74,72,96,81,50,0.00,40.00,14,4,21,0.05
2013-8-31,90,79,71,76,73,71,100,84,57,0.00,40.00,6,3,12,0.05
2013-9-1,92,79,72,76,70,-100,100,80,49,0.00,40.00,10,3,21,0.00
2013-9-2,91,80,72,76,73,70,98,79,56,0.00,40.00,8,4,12,0.00
2013-9-3,90,79,72,75,72,68,99,82,53,0.00,40.00,8,4,16,0.00
2013-9-4,93,80,70,75,72,69,99,80,50,0.00,40.00,6,3,17,0.09
2013-9-5,92,80,71,75,72,69,99,79,48,0.00,40.00,9,3,15,0.09
2013-9-6,92,79,69,73,70,67,98,77,46,0.00,40.00,8,4,13,0.00
2013-9-7,90,78,66,71,66,62,98,72,40,0.00,40.00,6,3,10,0.00
2013-9-8,92,76,64,73,64,-100,99,73,39,0.00,40.00,6,2,11,0.00
2013-9-9,94,81,70,72,70,64,95,72,38,0.00,40.00,7,4,13,0.00
2013-9-10,90,80,69,73,68,65,97,70,44,0.00,40.00,11,5,21,0.03
2013-9-11,90,78,68,72,68,64,98,74,43,0.00,40.00,9,4,15,0.03
2013-9-12,92,78,65,72,66,59,98,73,33,0.00,40.00,6,2,10,0.00
2013-9-13,90,77,69,73,69,66,95,80,46,0.00,40.00,9,3,14,0.15
2013-9-14,87,74,63,71,62,57,96,69,39,0.00,40.00,8,4,14,0.03
2013-9-15,90,75,68,74,65,-100,96,77,47,0.00,40.00,7,4,10,0.00
2013-9-16,92,79,69,73,71,68,98,78,50,0.00,40.00,7,3,19,0.08
2013-9-17,81,75,69,72,69,66,97,83,67,0.00,40.00,12,6,20,0.08
2013-9-18,74,68,66,66,63,61,88,84,75,0.00,40.00,8,5,14,0.00
2013-9-19,86,73,62,64,60,55,93,68,36,0.00,40.00,9,4,21,0.00
2013-9-20,88,74,62,68,64,61,97,75,42,0.00,40.00,7,3,12,0.00
2013-9-21,84,74,67,73,69,66,97,85,61,0.00,40.00,8,4,19,0.58
2013-9-22,80,70,67,71,64,-100,97,85,60,0.00,40.00,8,3,13,0.79
2013-9-23,73,68,64,68,64,59,98,88,75,0.00,40.00,13,6,19,0.18
2013-9-24,76,71,67,68,66,64,95,84,72,0.00,40.00,8,5,15,0.14
2013-9-25,83,73,69,73,70,67,95,88,67,0.00,40.00,12,5,16,0.03
2013-9-26,75,68,63,68,64,62,97,86,69,0.00,40.00,8,5,13,0.00
2013-9-27,80,68,58,61,57,52,98,71,38,0.00,40.00,9,4,17,0.00
2013-9-28,78,68,59,56,54,50,86,64,38,0.00,40.00,12,6,20,0.00
2013-9-29,80,65,54,60,54,-100,97,72,41,0.00,40.00,7,3,13,0.00
2013-9-30,77,67,57,62,59,56,97,79,53,0.00,40.00,10,4,14,0.00
2013-10-1,71,67,64,63,62,61,93,86,75,0.00,40.00,2,1,4,0.00
2013-10-2,85,70,56,66,60,55,98,76,38,0.00,40.00,8,2,14,0.00
2013-10-3,87,71,58,65,61,57,100,74,38,0.00,40.00,9,3,15,0.00
2013-10-4,89,72,60,70,64,60,100,79,42,0.00,40.00,6,2,11,0.00
2013-10-5,89,73,60,71,64,60,100,78,41,0.00,40.00,8,3,15,0.00
2013-10-6,88,73,61,71,67,61,100,82,49,0.00,40.00,9,3,16,0.00
2013-10-7,79,72,66,72,69,57,100,90,69,0.00,40.00,8,3,14,0.39
2013-10-8,77,68,59,63,60,56,95,76,62,0.00,40.00,10,6,18,0.06
2013-10-9,79,66,59,63,58,54,98,77,50,0.00,40.00,9,5,15,0.00
2013-10-10,83,68,54,64,58,54,100,75,39,0.00,40.00,7,2,12,0.00
2013-10-11,83,68,57,62,59,55,100,77,39,0.00,40.00,10,3,17,0.00
2013-10-12,85,67,53,61,57,53,100,75,34,0.00,40.00,7,3,14,0.00
2013-10-13,87,69,56,64,57,-100,99,72,36,0.00,40.00,7,3,16,0.00
2013-10-14,72,66,60,64,62,60,100,87,72,0.00,40.00,9,4,14,0.00
2013-10-15,73,68,61,63,61,58,98,80,60,0.00,40.00,10,5,16,0.00
2013-10-16,81,68,55,64,59,55,99,77,46,0.00,40.00,6,2,10,0.00
2013-10-17,85,70,58,69,62,58,99,79,49,0.00,40.00,9,3,16,0.00
2013-10-18,76,70,66,70,64,61,97,83,63,0.00,40.00,6,3,11,0.00
2013-10-19,73,67,62,65,60,56,96,77,56,0.00,40.00,7,4,14,0.00
2013-10-20,76,63,54,58,52,-100,97,73,41,0.00,40.00,5,4,11,0.00
2013-10-21,75,64,54,62,58,53,97,83,58,0.00,40.00,6,2,9,0.00
2013-10-22,74,66,61,65,62,60,99,86,64,0.00,40.00,4,2,7,0.00
2013-10-23,72,61,49,61,45,30,99,64,21,0.00,40.00,14,6,23,0.00
2013-10-24,73,53,36,48,39,32,98,68,24,0.00,40.00,6,2,11,0.00
2013-10-25,64,51,37,46,35,22,98,64,21,0.00,40.00,8,4,15,0.00
2013-10-26,68,48,32,43,35,31,96,68,25,0.00,40.00,5,2,10,0.00
2013-10-27,76,55,38,55,42,-100,98,71,38,0.00,40.00,6,2,13,0.00
2013-10-28,79,62,52,57,51,-100,99,74,38,0.00,40.00,5,2,13,0.00
2013-10-29,80,64,49,58,54,49,99,74,39,0.00,40.00,6,2,9,0.00
2013-10-30,83,66,52,56,54,51,98,71,35,0.00,40.00,7,2,14,0.00
2013-10-31,80,67,53,64,57,52,97,74,50,0.00,40.00,11,5,19,0.00
2013-11-1,74,69,64,70,66,59,98,92,73,0.00,40.00,9,5,17,0.70
2013-11-2,75,63,50,63,51,42,99,70,33,0.00,40.00,10,5,17,0.01
2013-11-3,68,53,43,47,40,-100,94,69,33,0.00,40.00,8,4,17,0.01
2013-11-4,70,55,40,45,42,36,99,66,39,0.00,40.00,14,6,22,0.00
2013-11-5,69,58,48,50,40,35,65,53,37,0.00,40.00,9,6,16,0.00
2013-11-6,75,63,57,63,57,50,99,81,58,0.00,40.00,8,5,15,0.00
2013-11-7,73,61,51,63,54,34,99,80,52,0.00,40.00,10,5,18,0.00
2013-11-8,65,50,37,40,34,29,91,60,27,0.00,40.00,9,5,16,0.00
2013-11-9,71,51,36,50,39,-100,98,70,38,0.00,40.00,10,3,16,0.00
2013-11-10,73,58,46,50,46,37,95,70,29,0.00,40.00,6,3,11,0.00
2013-11-11,73,55,42,48,43,39,98,70,30,0.00,40.00,8,3,13,0.00
2013-11-12,73,54,40,45,39,21,99,63,29,0.00,40.00,16,7,31,0.00
2013-11-13,52,40,29,27,17,11,86,43,19,0.00,40.00,13,7,21,0.00
2013-11-14,64,42,24,39,28,18,93,65,25,0.00,40.00,7,3,12,0.00
2013-11-15,62,54,42,54,48,38,94,80,68,0.00,40.00,8,4,11,0.00
2013-11-16,72,61,52,60,55,-100,100,85,61,0.00,40.00,8,5,14,0.00
2013-11-17,72,68,64,69,65,60,97,90,81,0.00,40.00,7,4,12,0.00
2013-11-18,84,73,59,71,60,35,98,68,36,0.00,40.00,9,6,16,0.30
2013-11-19,65,54,42,37,34,29,79,48,26,0.00,40.00,11,6,18,0.01
2013-11-20,57,52,46,40,35,29,57,52,43,0.00,40.00,12,7,19,0.00
2013-11-21,67,58,53,54,48,39,85,68,57,0.00,40.00,9,7,15,0.00
2013-11-22,75,61,55,63,57,51,99,87,64,0.00,40.00,7,3,10,0.00
2013-11-23,65,60,52,62,53,-100,99,83,42,0.00,40.00,11,5,18,0.02
2013-11-24,55,45,37,30,24,18,60,43,26,0.00,40.00,11,7,20,0.01
2013-11-25,56,44,33,41,24,10,71,46,31,0.00,40.00,12,9,20,0.00
2013-11-26,68,54,45,67,51,41,99,91,71,0.00,40.00,11,8,22,1.20
2013-11-27,48,42,33,47,34,22,98,74,46,0.00,40.00,15,10,29,0.48
2013-11-28,50,35,24,33,25,21,97,69,38,0.00,40.00,5,3,11,0.02
2013-11-29,60,40,28,37,29,24,97,72,26,0.00,40.00,5,2,12,0.00
2013-11-30,55,46,32,37,31,-100,94,59,49,0.00,40.00,8,6,15,0.00
2013-12-1,63,49,41,50,42,34,97,77,61,0.00,40.00,4,2,9,0.00
2013-12-2,66,54,47,50,47,44,99,79,46,0.00,40.00,5,2,8,0.00
2013-12-3,63,57,51,62,56,46,99,95,75,0.00,40.00,6,3,9,0.37
2013-12-4,74,66,62,66,64,61,100,93,77,0.00,40.00,6,4,10,0.04
2013-12-5,73,68,64,71,67,63,100,95,86,0.00,40.00,7,4,14,1.15
2013-12-6,78,69,58,67,63,57,98,83,65,0.00,40.00,10,5,19,0.01
2013-12-7,71,60,52,69,56,-100,98,89,81,0.00,40.00,8,5,15,0.02
2013-12-8,54,53,52,54,52,49,100,98,87,0.00,40.00,10,7,15,0.01
2013-12-9,71,61,52,69,60,52,100,99,93,0.00,40.00,7,3,11,0.45
2013-12-10,69,56,39,68,50,33,100,80,46,0.00,40.00,15,7,24,0.34
2013-12-11,62,44,31,44,36,29,97,76,42,0.00,40.00,8,4,12,0.01
2013-12-12,56,42,31,39,28,16,99,65,20,0.00,40.00,10,4,16,0.00
2013-12-13,61,44,26,42,31,24,94,65,30,0.00,40.00,7,3,10,0.00
2013-12-14,67,57,49,66,53,-100,99,88,72,0.00,40.00,10,5,20,0.80
2013-12-15,61,48,36,59,41,31,95,77,53,0.00,40.00,14,8,22,0.11
2013-12-16,62,42,31,39,32,29,97,74,28,0.00,40.00,6,4,12,0.01
2013-12-17,66,47,31,38,33,26,99,66,23,0.00,40.00,11,4,18,0.00
2013-12-18,60,47,33,37,30,21,94,58,23,0.00,40.00,10,4,15,0.00
2013-12-19,67,44,28,40,32,27,98,72,24,0.00,40.00,6,2,10,0.00
2013-12-20,71,53,36,58,48,35,98,84,61,0.00,40.00,6,2,9,0.00
2013-12-21,78,66,52,67,59,-100,99,84,64,0.00,40.00,12,6,22,0.00
2013-12-22,76,70,67,69,67,65,97,89,76,0.00,40.00,11,7,20,0.18
2013-12-23,72,58,46,69,55,40,99,90,77,0.00,40.00,12,6,22,1.82
2013-12-24,52,42,33,40,28,22,87,61,33,0.00,40.00,12,8,20,0.02
2013-12-25,47,38,28,30,26,22,83,63,48,0.00,40.00,7,5,12,0.00
2013-12-26,56,46,38,40,35,30,93,65,52,0.00,40.00,6,4,12,0.00
2013-12-27,57,44,36,37,34,32,95,72,40,0.00,40.00,8,4,12,0.00
2013-12-28,50,43,36,44,34,-100,98,75,49,0.00,40.00,8,5,16,0.74
2013-12-29,55,50,44,50,48,43,99,91,79,0.00,40.00,13,6,18,2.30
2013-12-30,57,47,36,48,43,36,99,88,60,0.00,40.00,5,2,8,0.01
2013-12-31,50,47,42,46,42,38,94,83,63,0.00,40.00,7,4,12,0.00
2014-1-1,54,47,41,48,41,35,95,81,67,0.00,40.00,5,3,8,0.00
2014-1-2,56,49,36,55,46,25,99,89,50,0.00,40.00,18,6,30,0.39